createdAt,value
2022-07-26T00:01:00.776Z,18.3
2022-07-26T00:06:41.910Z,18.2
2022-07-26T00:12:22.207Z,18.1
2022-07-26T00:18:02.321Z,18
2022-07-26T00:23:42.606Z,18
2022-07-26T00:29:22.705Z,17.9
2022-07-26T00:35:02.967Z,17.8
2022-07-26T00:40:46.589Z,17.7
2022-07-26T00:46:26.621Z,17.7
2022-07-26T00:52:07.879Z,17.7
2022-07-26T00:57:47.962Z,17.6
2022-07-26T01:03:29.242Z,17.5
2022-07-26T01:09:20.298Z,17.4
2022-07-26T01:15:00.630Z,17.4
2022-07-26T01:20:40.832Z,17.3
2022-07-26T01:26:21.700Z,17.3
2022-07-26T01:32:06.412Z,17.2
2022-07-26T01:37:46.640Z,17.1
2022-07-26T01:43:27.130Z,17.1
2022-07-26T01:49:09.518Z,17
2022-07-26T01:54:50.961Z,17
2022-07-26T02:00:33.843Z,17.1
2022-07-26T02:06:14.225Z,17
2022-07-26T02:11:55.334Z,17
2022-07-26T02:17:35.480Z,17
2022-07-26T02:23:15.709Z,17.1
2022-07-26T02:28:55.999Z,17
2022-07-26T02:34:36.047Z,17.1
2022-07-26T02:40:19.220Z,17.2
2022-07-26T02:46:01.995Z,17.5
2022-07-26T02:51:42.857Z,17.5
2022-07-26T02:57:22.893Z,17.3
2022-07-26T03:03:03.423Z,17.3
2022-07-26T03:08:44.273Z,17.1
2022-07-26T03:14:24.537Z,17.1
2022-07-26T03:20:04.616Z,17
2022-07-26T03:25:44.781Z,17
2022-07-26T03:31:27.940Z,17.1
2022-07-26T03:37:09.502Z,17.2
2022-07-26T03:42:49.799Z,17.3
2022-07-26T03:48:30.273Z,17.5
2022-07-26T03:59:17.559Z,17.6
2022-07-26T04:04:57.533Z,17.6
2022-07-26T04:10:39.158Z,17.7
2022-07-26T04:16:19.376Z,17.8
2022-07-26T04:22:00.220Z,17.8
2022-07-26T04:27:40.422Z,17.7
2022-07-26T04:33:20.581Z,17.8
2022-07-26T04:39:00.613Z,17.8
2022-07-26T04:44:40.973Z,17.8
2022-07-26T04:50:21.350Z,17.8
2022-07-26T04:56:01.535Z,17.8
2022-07-26T05:01:41.760Z,17.9
2022-07-26T05:07:22.525Z,18
2022-07-26T05:13:02.671Z,18
2022-07-26T05:18:43.880Z,17.6
2022-07-26T05:24:29.997Z,17.4
2022-07-26T05:30:10.121Z,17.3
2022-07-26T05:35:50.443Z,17.4
2022-07-26T05:41:30.818Z,17.4
2022-07-26T05:47:11.333Z,17.4
2022-07-26T05:52:51.562Z,17.4
2022-07-26T05:58:32.099Z,17.5
2022-07-26T06:04:13.362Z,17.7
2022-07-26T06:09:54.812Z,17.9
2022-07-26T06:15:35.352Z,18.1
2022-07-26T06:21:15.672Z,18.2
2022-07-26T06:26:57.249Z,18.4
2022-07-26T06:32:46.251Z,18.4
2022-07-26T06:38:26.428Z,18.4
2022-07-26T06:44:07.001Z,18.5
2022-07-26T06:49:50.382Z,18.6
2022-07-26T06:55:30.773Z,18.5
2022-07-26T07:01:12.812Z,18.4
2022-07-26T07:07:42.168Z,18.4
2022-07-26T07:13:23.012Z,18.4
2022-07-26T07:19:03.396Z,18.5
2022-07-26T07:24:46.760Z,18.5
2022-07-26T07:30:28.791Z,18.5
2022-07-26T07:36:11.919Z,18.7
2022-07-26T07:41:52.801Z,18.7
2022-07-26T07:47:33.054Z,18.6
2022-07-26T07:53:14.560Z,18.4
2022-07-26T07:58:55.010Z,18.3
2022-07-26T08:04:38.900Z,18.6
2022-07-26T08:10:20.175Z,19
2022-07-26T08:16:01.598Z,19.5
2022-07-26T08:21:49.762Z,19.6
2022-07-26T08:27:40.376Z,19.4
2022-07-26T08:33:40.806Z,18.9
2022-07-26T08:39:29.751Z,18.8
2022-07-26T08:45:13.249Z,19
2022-07-26T08:50:53.846Z,19.9
2022-07-26T08:56:34.500Z,20.5
2022-07-26T09:02:15.468Z,21.8
2022-07-26T09:07:56.824Z,22.8
2022-07-26T09:13:37.476Z,22.6
2022-07-26T09:19:18.423Z,24
2022-07-26T09:31:07.678Z,28.1
2022-07-26T09:41:59.835Z,25.8
2022-07-26T09:48:10.099Z,24.4
2022-07-26T09:53:51.006Z,26.2
2022-07-26T09:59:32.016Z,26.1
2022-07-26T10:05:11.887Z,24.6
2022-07-26T10:10:51.958Z,23.5
2022-07-26T10:33:11.038Z,24.4
2022-07-26T10:43:52.455Z,22.9
2022-07-26T10:49:34.768Z,21.6
2022-07-26T10:55:20.659Z,21.3
2022-07-26T11:01:00.814Z,20.8
2022-07-26T11:06:41.744Z,21.1
2022-07-26T11:12:22.746Z,22.1
2022-07-26T11:18:06.952Z,22.6
2022-07-26T11:23:48.273Z,22
2022-07-26T11:29:39.274Z,22.8
2022-07-26T11:35:37.863Z,23.2
2022-07-26T11:46:19.061Z,22.4
2022-07-26T11:52:00.118Z,22.1
2022-07-26T11:57:50.041Z,23.1
2022-07-26T12:03:34.792Z,24.4
2022-07-26T12:09:15.263Z,25
2022-07-26T12:14:56.004Z,25.1
2022-07-26T12:20:39.760Z,27.2
2022-07-26T12:26:49.518Z,26.1
2022-07-26T12:32:29.895Z,26.6
2022-07-26T12:38:10.949Z,29.1
2022-07-26T12:43:57.894Z,28
2022-07-26T12:49:38.559Z,29.5
2022-07-26T12:55:18.812Z,28.2
2022-07-26T13:01:01.947Z,30.5
2022-07-26T13:06:42.339Z,30.1
2022-07-26T13:12:22.948Z,30.3
2022-07-26T13:18:06.528Z,27.7
2022-07-26T13:23:47.424Z,26.8
2022-07-26T13:29:28.181Z,25.1
2022-07-26T13:35:07.861Z,23.7
2022-07-26T13:40:47.774Z,23.3
2022-07-26T13:46:32.765Z,24.8
2022-07-26T13:52:16.970Z,27.1
2022-07-26T13:57:58.255Z,27.1
2022-07-26T14:03:39.334Z,26.9
2022-07-26T14:09:20.239Z,29.1
2022-07-26T14:15:00.554Z,28.6
2022-07-26T14:20:40.235Z,28.3
2022-07-26T14:26:20.775Z,27.8
2022-07-26T14:32:00.525Z,27.2
2022-07-26T14:37:44.573Z,26.9
2022-07-26T14:49:07.641Z,24.6
2022-07-26T14:54:48.677Z,24.9
2022-07-26T15:00:29.603Z,27.2
2022-07-26T15:06:09.879Z,26
2022-07-26T15:11:50.215Z,26.6
2022-07-26T15:17:30.601Z,27.7
2022-07-26T15:23:11.638Z,27.6
2022-07-26T15:28:52.129Z,25.8
2022-07-26T15:34:32.299Z,24.6
2022-07-26T15:40:12.306Z,24.3
2022-07-26T15:45:52.789Z,24.8
2022-07-26T15:51:36.066Z,23.8
2022-07-26T15:57:16.175Z,23.6
2022-07-26T16:02:56.495Z,23.8
2022-07-26T16:08:47.368Z,23.7
2022-07-26T16:15:00.990Z,22.6
2022-07-26T16:20:41.393Z,22.4
2022-07-26T16:26:21.424Z,22.4
2022-07-26T16:32:02.185Z,22.7
2022-07-26T16:37:43.266Z,22.7
2022-07-26T16:43:23.688Z,22.5
2022-07-26T16:49:04.809Z,21.9
2022-07-26T16:54:46.286Z,22
2022-07-26T17:00:26.524Z,21.9
2022-07-26T17:06:07.810Z,21.7
2022-07-26T17:11:47.835Z,21.5
2022-07-26T17:17:27.810Z,21.2
2022-07-26T17:23:08.436Z,21
2022-07-26T17:29:00.057Z,21
2022-07-26T17:34:41.842Z,20.9
2022-07-26T17:40:25.853Z,20.7
2022-07-26T17:46:07.074Z,20.6
2022-07-26T17:51:47.680Z,20.6
2022-07-26T17:57:27.756Z,20.7
2022-07-26T18:03:10.926Z,20.7
2022-07-26T18:08:51.240Z,20.4
2022-07-26T18:14:31.329Z,20.1
2022-07-26T18:20:11.693Z,19.9
2022-07-26T18:25:52.459Z,19.9
2022-07-26T18:31:33.136Z,19.9
2022-07-26T18:37:14.460Z,19.8
2022-07-26T18:42:54.718Z,19.5
2022-07-26T18:48:34.810Z,19.3
2022-07-26T18:54:16.268Z,19
2022-07-26T18:59:57.524Z,18.8
2022-07-26T19:05:37.678Z,18.5
2022-07-26T19:11:17.959Z,18.3
2022-07-26T19:16:58.527Z,18.3
2022-07-26T19:22:38.753Z,18.2
2022-07-26T19:28:18.936Z,18
2022-07-26T19:33:59.629Z,18
2022-07-26T19:39:39.618Z,17.9
2022-07-26T19:45:19.801Z,17.9
2022-07-26T19:50:59.920Z,17.8
2022-07-26T19:56:40.169Z,17.8
2022-07-26T20:02:20.401Z,17.8
2022-07-26T20:08:04.532Z,17.9
2022-07-26T20:13:45.270Z,17.8
2022-07-26T20:19:25.505Z,17.7
2022-07-26T20:25:05.782Z,17.5
2022-07-26T20:30:45.976Z,17.5
2022-07-26T20:36:27.221Z,17.4
2022-07-26T20:42:09.253Z,17.3
2022-07-26T20:48:03.907Z,17.3
2022-07-26T20:53:44.144Z,17.2
2022-07-26T20:59:24.625Z,17.3
2022-07-26T21:05:08.320Z,17.4
2022-07-26T21:10:49.313Z,17.4
2022-07-26T21:16:29.538Z,17.3
2022-07-26T21:22:13.568Z,17.3
2022-07-26T21:27:54.304Z,17.4
2022-07-26T21:33:34.612Z,17.3
2022-07-26T21:39:14.990Z,17.4
2022-07-26T21:44:55.322Z,17.4
2022-07-26T21:50:35.429Z,17.5
2022-07-26T21:56:15.581Z,17.5
2022-07-26T22:01:55.798Z,17.5
2022-07-26T22:07:36.730Z,17.5
2022-07-26T22:13:17.000Z,17.4
2022-07-26T22:18:57.261Z,17.3
2022-07-26T22:24:42.562Z,17.2
2022-07-26T22:30:22.758Z,17.2
2022-07-26T22:36:03.069Z,17.2
2022-07-26T22:42:05.381Z,17.2
2022-07-26T22:47:57.069Z,17.2
2022-07-26T22:53:37.286Z,17.2
2022-07-26T22:59:17.191Z,17
2022-07-26T23:04:57.292Z,17.1
2022-07-26T23:10:37.799Z,17
2022-07-26T23:16:18.312Z,16.8
2022-07-26T23:22:06.739Z,16.6
2022-07-26T23:27:46.902Z,16.5
2022-07-26T23:33:50.368Z,16.4
2022-07-26T23:39:35.314Z,16.4
2022-07-26T23:45:15.563Z,16.4
2022-07-26T23:50:55.861Z,16.3
2022-07-26T23:56:35.963Z,16.3
